Time;durP1;ratioP1;P1;durP2;ratioP2;P2;SDS_P1;SDS_P2;PMS_P1;PMS_P2;Temp;Humidity;BMP_temperature;BMP_pressure;BME280_temperature;BME280_humidity;BME280_pressure;Samples;Min_cycle;Max_cycle;Signal;HPM_P1;HPM_P2
2023/02/16 00:00:44;;;;;;;36.60;16.25;;;29.40;81.50;;;;;;5083812;28;20032;-55
2023/02/16 00:03:21;;;;;;;31.02;16.88;;;29.30;82.10;;;;;;5083930;28;20048;-55
2023/02/16 00:05:48;;;;;;;35.92;15.93;;;29.30;81.80;;;;;;5083809;28;20024;-56
2023/02/16 00:08:15;;;;;;;30.77;15.35;;;29.30;81.90;;;;;;5083902;28;20021;-57
2023/02/16 00:13:43;;;;;;;36.88;15.73;;;29.30;82.00;;;;;;5084156;28;20055;-52
2023/02/16 00:13:46;;;;;;;30.52;13.98;;;29.30;82.00;;;;;;5083384;28;20037;-51
2023/02/16 00:16:15;;;;;;;29.02;14.25;;;29.30;82.00;;;;;;5083670;28;20232;-52
2023/02/16 00:18:42;;;;;;;25.70;14.23;;;29.20;82.20;;;;;;5083900;28;20028;-52
2023/02/16 00:21:09;;;;;;;28.75;13.55;;;29.20;82.30;;;;;;5083794;28;20037;-51
2023/02/16 00:23:35;;;;;;;23.85;15.60;;;29.20;82.60;;;;;;5083706;28;20325;-48
2023/02/16 00:26:02;;;;;;;29.92;15.30;;;29.10;82.50;;;;;;5083856;28;20055;-56
2023/02/16 00:28:29;;;;;;;24.70;13.43;;;29.20;82.60;;;;;;5083768;28;20029;-52
2023/02/16 00:30:58;;;;;;;26.58;14.57;;;29.20;82.50;;;;;;5083708;28;20091;-51
2023/02/16 00:33:25;;;;;;;33.65;15.70;;;29.10;82.40;;;;;;5083666;28;20027;-56
2023/02/16 00:35:51;;;;;;;21.42;13.57;;;29.10;82.60;;;;;;5084180;28;20020;-56
2023/02/16 00:38:18;;;;;;;27.15;14.13;;;29.10;82.50;;;;;;5083578;28;20062;-55
2023/02/16 00:40:45;;;;;;;31.00;13.10;;;29.10;82.60;;;;;;5084168;28;20197;-54
2023/02/16 00:43:27;;;;;;;27.75;12.95;;;29.10;82.60;;;;;;5083834;28;20050;-56
2023/02/16 00:45:55;;;;;;;21.30;12.32;;;29.10;82.60;;;;;;5083431;28;20066;-59
2023/02/16 00:48:22;;;;;;;29.77;13.00;;;29.10;82.50;;;;;;5083883;28;20021;-54
2023/02/16 00:50:49;;;;;;;22.33;11.88;;;29.10;82.80;;;;;;5084398;28;20024;-57
2023/02/16 00:53:16;;;;;;;29.83;12.23;;;29.10;82.90;;;;;;5065835;28;20028;-56
2023/02/16 00:55:43;;;;;;;24.42;11.75;;;29.10;82.90;;;;;;5083849;28;20212;-52
2023/02/16 00:58:29;;;;;;;17.30;11.32;;;29.10;82.80;;;;;;5083438;28;20059;-52
2023/02/16 01:01:13;;;;;;;20.77;11.52;;;29.10;82.70;;;;;;5083380;28;20032;-52
2023/02/16 01:03:41;;;;;;;20.27;10.95;;;29.10;82.70;;;;;;5083297;28;20296;-51
2023/02/16 01:11:55;;;;;;;16.77;10.10;;;29.00;82.50;;;;;;5083147;28;20121;-53
2023/02/16 01:14:22;;;;;;;16.35;10.60;;;29.10;82.60;;;;;;5062901;28;20040;-51
2023/02/16 01:16:48;;;;;;;14.48;10.45;;;29.00;82.60;;;;;;5085134;28;20415;-53
2023/02/16 01:19:15;;;;;;;16.45;10.43;;;29.00;82.90;;;;;;5086971;28;20024;-58
2023/02/16 01:21:44;;;;;;;15.95;10.20;;;29.00;83.00;;;;;;5086740;28;20043;-55
2023/02/16 01:24:11;;;;;;;16.80;11.65;;;29.00;83.20;;;;;;5081156;28;20048;-50
2023/02/16 01:26:41;;;;;;;12.98;10.55;;;29.00;83.40;;;;;;5084387;28;20052;-51
2023/02/16 01:29:17;;;;;;;13.10;9.32;;;29.00;83.60;;;;;;5086852;28;20097;-55
2023/02/16 01:31:46;;;;;;;13.73;8.95;;;28.90;83.50;;;;;;5086609;28;20040;-50
2023/02/16 01:34:13;;;;;;;14.32;9.13;;;28.90;83.50;;;;;;5086471;28;20032;-52
2023/02/16 01:36:45;;;;;;;17.10;8.90;;;28.90;83.30;;;;;;5086535;28;20044;-56
2023/02/16 01:39:14;;;;;;;12.63;8.60;;;28.90;83.10;;;;;;5086629;28;20020;-56
2023/02/16 01:42:18;;;;;;;10.57;7.85;;;28.90;82.80;;;;;;5086334;28;20028;-58
2023/02/16 01:45:16;;;;;;;13.63;8.20;;;28.90;82.60;;;;;;5086433;28;20028;-49
2023/02/16 01:48:00;;;;;;;16.92;8.57;;;28.90;82.20;;;;;;5067269;28;20111;-49
2023/02/16 01:50:37;;;;;;;17.17;7.85;;;28.90;82.00;;;;;;5086925;28;20021;-51
2023/02/16 01:53:16;;;;;;;11.82;7.05;;;28.80;82.00;;;;;;5086297;28;20411;-58
2023/02/16 01:55:46;;;;;;;12.60;6.72;;;28.80;82.10;;;;;;5087208;28;20027;-49
2023/02/16 01:58:34;;;;;;;12.80;6.78;;;28.80;81.80;;;;;;5086250;28;20044;-49
2023/02/16 02:01:00;;;;;;;10.02;6.03;;;28.70;81.80;;;;;;5086064;28;20393;-56
2023/02/16 02:06:30;;;;;;;9.57;6.57;;;28.70;81.60;;;;;;5086686;28;20035;-53
2023/02/16 02:09:21;;;;;;;15.55;6.45;;;28.70;81.70;;;;;;5086277;28;20016;-54
2023/02/16 02:12:08;;;;;;;9.00;6.28;;;28.70;81.10;;;;;;5085995;28;20048;-50
2023/02/16 02:14:39;;;;;;;13.40;6.53;;;28.70;80.80;;;;;;5086344;28;20032;-53
2023/02/16 02:17:17;;;;;;;8.77;5.88;;;28.70;80.50;;;;;;5086560;28;20062;-53
2023/02/16 02:19:59;;;;;;;9.82;6.35;;;28.70;80.10;;;;;;5085882;28;20043;-58
2023/02/16 02:26:17;;;;;;;7.43;5.90;;;28.70;79.50;;;;;;5066111;28;20036;-51
2023/02/16 02:29:10;;;;;;;12.82;5.78;;;28.60;79.60;;;;;;5065123;28;20245;-55
2023/02/16 02:32:03;;;;;;;7.65;5.10;;;28.50;80.00;;;;;;5056381;28;20060;-57
2023/02/16 02:35:11;;;;;;;12.68;5.00;;;28.20;80.40;;;;;;5061356;28;20044;-56
2023/02/16 02:37:59;;;;;;;11.18;5.20;;;28.00;80.20;;;;;;5048893;28;20052;-59
2023/02/16 02:43:59;;;;;;;8.75;4.72;;;27.80;80.70;;;;;;5051575;28;20072;-58
2023/02/16 02:46:36;;;;;;;9.55;5.18;;;27.70;80.70;;;;;;5048690;28;20321;-56
2023/02/16 02:49:03;;;;;;;8.15;5.22;;;27.70;81.10;;;;;;5065598;28;20025;-59
2023/02/16 02:51:39;;;;;;;8.90;5.80;;;27.70;81.30;;;;;;5048043;28;20025;-55
2023/02/16 03:03:30;;;;;;;8.30;5.00;;;28.10;80.20;;;;;;5063457;28;20265;-55
2023/02/16 03:06:03;;;;;;;8.27;4.57;;;28.20;79.70;;;;;;5050652;28;20071;-55
2023/02/16 03:08:33;;;;;;;7.35;5.20;;;28.20;79.30;;;;;;5049224;28;20025;-53
2023/02/16 03:14:08;;;;;;;9.15;5.22;;;28.40;78.70;;;;;;5045949;28;20040;-61
2023/02/16 03:16:41;;;;;;;8.13;5.13;;;28.40;78.70;;;;;;5038433;28;20033;-54
2023/02/16 03:30:26;;;;;;;8.93;5.15;;;28.40;78.60;;;;;;5045277;28;20080;-59
2023/02/16 03:32:53;;;;;;;9.20;4.82;;;28.40;78.60;;;;;;5045896;28;20048;-57
2023/02/16 03:35:21;;;;;;;12.57;5.30;;;28.40;78.50;;;;;;5044484;28;20036;-54
2023/02/16 03:37:50;;;;;;;7.57;4.95;;;28.40;78.50;;;;;;5045239;28;20206;-57
2023/02/16 03:40:31;;;;;;;6.90;4.65;;;28.50;78.50;;;;;;5050460;28;20312;-59
2023/02/16 03:43:04;;;;;;;5.97;4.78;;;28.50;78.40;;;;;;5045942;28;20029;-57
2023/02/16 03:45:33;;;;;;;6.97;4.57;;;28.50;78.40;;;;;;5044425;28;20040;-57
2023/02/16 03:48:01;;;;;;;8.45;4.80;;;28.40;78.30;;;;;;5047072;28;20155;-55
2023/02/16 03:50:27;;;;;;;7.00;4.30;;;28.50;77.90;;;;;;5054024;28;20079;-54
2023/02/16 03:53:05;;;;;;;8.63;4.90;;;28.50;77.80;;;;;;5048176;28;20040;-61
2023/02/16 03:55:44;;;;;;;5.63;4.55;;;28.50;77.80;;;;;;5066727;28;20021;-58
2023/02/16 03:58:13;;;;;;;8.05;4.20;;;28.40;77.30;;;;;;5068453;28;20060;-56
2023/02/16 04:00:40;;;;;;;6.28;4.00;;;28.50;77.30;;;;;;5063991;28;20368;-55
2023/02/16 04:03:10;;;;;;;6.32;4.50;;;28.50;77.00;;;;;;5064091;28;20056;-54
2023/02/16 04:05:37;;;;;;;6.55;4.05;;;28.50;76.90;;;;;;5063922;28;20029;-57
2023/02/16 04:08:05;;;;;;;7.63;4.45;;;28.50;76.80;;;;;;5064113;28;20021;-55
2023/02/16 04:10:33;;;;;;;7.47;4.05;;;28.50;77.10;;;;;;5063808;28;20309;-56
2023/02/16 04:12:59;;;;;;;6.95;4.10;;;28.50;76.30;;;;;;5063908;28;20375;-58
2023/02/16 04:15:31;;;;;;;5.10;3.60;;;28.50;76.70;;;;;;5064578;28;20032;-57
2023/02/16 04:17:58;;;;;;;4.97;3.80;;;28.50;76.20;;;;;;5064179;28;20017;-57
2023/02/16 04:20:27;;;;;;;6.93;4.50;;;28.50;76.20;;;;;;5063693;28;20033;-55
2023/02/16 04:22:54;;;;;;;4.68;4.10;;;28.50;76.20;;;;;;5046168;28;20044;-58
2023/02/16 04:25:22;;;;;;;6.05;4.13;;;28.40;76.10;;;;;;5064039;28;20208;-55
2023/02/16 04:27:50;;;;;;;6.15;4.28;;;28.40;76.00;;;;;;5063698;28;20055;-62
2023/02/16 04:30:26;;;;;;;6.20;4.45;;;28.40;76.20;;;;;;5070140;28;20021;-53
2023/02/16 04:32:53;;;;;;;7.15;4.88;;;28.40;76.30;;;;;;5077622;28;20063;-55
2023/02/16 04:35:21;;;;;;;7.30;4.97;;;28.30;76.40;;;;;;5068357;28;20256;-59
2023/02/16 04:37:47;;;;;;;6.18;4.63;;;28.40;76.50;;;;;;5063725;28;20070;-54
2023/02/16 04:40:16;;;;;;;5.93;4.65;;;28.30;76.40;;;;;;5063806;28;20036;-58
2023/02/16 04:42:44;;;;;;;5.32;4.13;;;28.40;76.40;;;;;;5063352;28;20027;-59
2023/02/16 04:45:12;;;;;;;8.57;4.80;;;28.30;76.20;;;;;;5063711;28;20056;-56
2023/02/16 04:47:38;;;;;;;7.07;4.78;;;28.30;76.40;;;;;;5063686;28;20289;-53
2023/02/16 04:50:06;;;;;;;5.40;4.80;;;28.30;76.50;;;;;;5063792;28;20033;-58
2023/02/16 04:52:33;;;;;;;4.78;4.32;;;28.30;76.50;;;;;;5066977;28;20024;-60
2023/02/16 04:54:59;;;;;;;6.60;4.50;;;28.30;76.40;;;;;;5067630;28;20092;-60
2023/02/16 04:57:26;;;;;;;4.80;4.30;;;28.20;76.40;;;;;;5068139;28;20335;-56
2023/02/16 04:59:52;;;;;;;4.53;3.97;;;28.20;76.40;;;;;;5067983;28;20191;-55
2023/02/16 05:02:19;;;;;;;6.45;4.40;;;28.20;76.30;;;;;;5067526;28;20052;-57
2023/02/16 05:04:48;;;;;;;6.07;4.10;;;28.20;76.30;;;;;;5068000;28;20086;-60
2023/02/16 05:07:15;;;;;;;5.65;4.30;;;28.20;76.20;;;;;;5064427;28;20027;-58
2023/02/16 05:09:41;;;;;;;6.65;4.45;;;28.20;76.30;;;;;;5087803;28;20028;-55
2023/02/16 05:14:55;;;;;;;6.45;4.22;;;28.20;76.60;;;;;;5087164;28;20036;-60
2023/02/16 05:17:24;;;;;;;7.38;4.07;;;28.20;77.00;;;;;;5086873;28;20034;-53
2023/02/16 05:19:56;;;;;;;5.47;4.38;;;28.10;77.30;;;;;;5087429;28;20103;-49
2023/02/16 05:22:23;;;;;;;;;;;28.10;77.40;;;;;;5087346;28;20096;-57
2023/02/16 05:24:50;;;;;;;5.72;4.38;;;28.10;77.20;;;;;;5087312;28;19908;-52
2023/02/16 05:27:20;;;;;;;5.05;4.20;;;28.10;77.40;;;;;;5086840;28;20027;-58
2023/02/16 05:29:47;;;;;;;6.97;4.78;;;28.10;77.50;;;;;;5087391;28;20070;-52
2023/02/16 05:32:14;;;;;;;5.18;4.68;;;28.20;78.40;;;;;;5086953;28;20044;-55
2023/02/16 05:34:40;;;;;;;7.88;5.20;;;28.20;78.60;;;;;;5087179;28;20031;-56
2023/02/16 05:37:07;;;;;;;6.93;4.78;;;28.20;78.90;;;;;;5086740;28;20267;-56
2023/02/16 05:39:33;;;;;;;7.35;5.47;;;28.20;78.90;;;;;;5087250;28;20043;-58
2023/02/16 05:42:00;;;;;;;8.30;5.22;;;28.20;79.00;;;;;;5087112;28;20324;-55
2023/02/16 05:44:27;;;;;;;7.25;5.25;;;28.20;79.10;;;;;;5087241;28;20058;-55
2023/02/16 05:46:53;;;;;;;7.03;5.38;;;28.30;79.20;;;;;;5078854;28;20024;-53
2023/02/16 05:49:20;;;;;;;6.15;5.28;;;28.30;79.40;;;;;;5067040;28;20032;-54
2023/02/16 05:51:47;;;;;;;7.00;4.93;;;28.20;79.80;;;;;;5066369;28;20036;-53
2023/02/16 05:54:17;;;;;;;6.97;5.20;;;28.20;80.10;;;;;;5066621;28;20036;-57
2023/02/16 05:56:48;;;;;;;7.05;4.50;;;28.20;80.50;;;;;;5066356;28;20032;-53
2023/02/16 05:59:16;;;;;;;6.63;4.30;;;28.10;80.80;;;;;;5066090;28;20321;-55
2023/02/16 06:01:45;;;;;;;6.70;4.15;;;28.10;81.00;;;;;;5066030;28;20037;-56
2023/02/16 06:04:16;;;;;;;4.90;3.75;;;28.10;81.10;;;;;;5065533;28;20017;-54
2023/02/16 06:06:43;;;;;;;6.38;3.15;;;28.00;81.20;;;;;;5066020;28;20029;-57
2023/02/16 06:09:09;;;;;;;4.25;3.60;;;28.00;81.90;;;;;;5066377;28;20071;-55
2023/02/16 06:11:36;;;;;;;6.13;2.75;;;28.00;81.50;;;;;;5066052;28;20102;-55
2023/02/16 06:14:12;;;;;;;4.13;2.83;;;28.00;81.70;;;;;;5066076;28;20028;-54
2023/02/16 06:16:41;;;;;;;6.20;2.47;;;27.90;81.50;;;;;;5065870;28;20029;-54
2023/02/16 06:19:08;;;;;;;2.55;2.20;;;27.90;81.40;;;;;;5066390;28;20025;-54
2023/02/16 06:21:37;;;;;;;4.38;2.50;;;27.90;81.60;;;;;;5065718;28;20024;-53
2023/02/16 06:24:04;;;;;;;5.45;2.47;;;27.90;81.80;;;;;;5066180;28;20033;-55
2023/02/16 06:26:30;;;;;;;7.60;2.63;;;27.90;82.10;;;;;;5065822;28;20347;-56
2023/02/16 06:28:57;;;;;;;4.20;2.30;;;27.80;82.40;;;;;;5065850;28;20048;-57
2023/02/16 06:31:24;;;;;;;10.25;3.50;;;27.80;82.50;;;;;;5065719;28;20037;-54
2023/02/16 06:33:52;;;;;;;8.40;2.65;;;27.80;82.40;;;;;;5065932;28;20063;-54
2023/02/16 06:36:19;;;;;;;14.65;2.80;;;27.80;82.50;;;;;;5065424;28;20029;-55
2023/02/16 06:38:46;;;;;;;9.77;2.35;;;27.80;82.20;;;;;;5065772;28;20321;-58
2023/02/16 06:41:29;;;;;;;18.08;3.35;;;27.80;82.00;;;;;;5065503;28;20031;-55
2023/02/16 06:44:00;;;;;;;15.70;3.50;;;27.70;82.10;;;;;;5065683;28;20031;-59
2023/02/16 06:46:27;;;;;;;19.98;3.30;;;27.70;82.40;;;;;;5065422;28;20048;-56
2023/02/16 06:48:54;;;;;;;18.88;3.03;;;27.70;82.90;;;;;;5065515;28;20084;-55
2023/02/16 06:51:20;;;;;;;9.77;2.80;;;27.70;83.40;;;;;;5065343;28;20013;-56
2023/02/16 06:53:48;;;;;;;11.00;3.05;;;27.70;84.30;;;;;;5065545;28;20189;-56
2023/02/16 06:56:14;;;;;;;9.75;2.95;;;27.70;85.40;;;;;;5065047;28;20096;-55
2023/02/16 06:58:42;;;;;;;11.75;3.47;;;27.60;85.90;;;;;;5065262;28;20091;-55
2023/02/16 07:01:08;;;;;;;12.43;4.50;;;27.50;86.70;;;;;;5065149;28;20041;-57
2023/02/16 07:03:35;;;;;;;10.60;3.53;;;27.50;87.80;;;;;;5065009;28;20028;-56
2023/02/16 07:06:02;;;;;;;12.65;3.28;;;27.40;88.10;;;;;;5065069;28;20029;-57
2023/02/16 07:08:29;;;;;;;7.72;3.33;;;27.30;88.30;;;;;;5065053;28;20029;-56
2023/02/16 07:10:55;;;;;;;5.07;2.63;;;27.20;88.80;;;;;;5064699;28;20045;-62
2023/02/16 07:13:22;;;;;;;6.22;2.83;;;27.20;88.70;;;;;;5065010;28;20033;-55
2023/02/16 07:15:49;;;;;;;6.15;2.60;;;27.10;89.10;;;;;;5064641;28;20027;-55
2023/02/16 07:18:15;;;;;;;3.85;2.75;;;27.10;89.00;;;;;;5064850;28;20035;-60
2023/02/16 07:20:42;;;;;;;8.23;2.80;;;27.10;88.80;;;;;;5064747;28;20101;-54
2023/02/16 07:23:08;;;;;;;5.93;2.83;;;27.00;89.30;;;;;;5064874;28;20075;-59
2023/02/16 07:25:35;;;;;;;3.88;2.50;;;27.10;89.50;;;;;;5064604;28;20029;-56
2023/02/16 07:28:01;;;;;;;4.90;3.00;;;27.00;89.50;;;;;;5064711;28;20024;-56
2023/02/16 07:30:28;;;;;;;4.22;2.50;;;27.00;90.00;;;;;;5064601;28;20021;-54
2023/02/16 07:32:55;;;;;;;5.25;2.55;;;27.00;89.60;;;;;;5064592;28;20040;-53
2023/02/16 07:35:22;;;;;;;5.30;2.67;;;26.90;89.70;;;;;;5064471;28;20086;-53
2023/02/16 07:37:48;;;;;;;3.33;2.45;;;26.90;89.60;;;;;;5064376;28;20197;-57
2023/02/16 07:40:15;;;;;;;7.47;2.75;;;26.90;89.60;;;;;;5064379;28;20096;-53
2023/02/16 07:42:41;;;;;;;4.25;2.25;;;26.90;90.00;;;;;;5064009;28;20036;-54
2023/02/16 07:45:08;;;;;;;4.55;2.42;;;26.90;89.90;;;;;;5064422;28;20075;-58
2023/02/16 07:47:35;;;;;;;3.97;2.45;;;26.90;90.10;;;;;;5064149;28;20024;-60
2023/02/16 07:50:01;;;;;;;4.97;2.83;;;26.80;90.00;;;;;;5064121;28;20083;-55
2023/02/16 07:52:29;;;;;;;4.78;2.55;;;26.90;90.10;;;;;;5064120;28;20028;-59
2023/02/16 07:55:00;;;;;;;4.97;2.60;;;26.80;90.10;;;;;;5064109;28;20025;-54
2023/02/16 07:57:28;;;;;;;6.18;2.95;;;26.90;90.00;;;;;;5064100;28;20056;-56
2023/02/16 07:59:55;;;;;;;8.32;2.90;;;26.90;90.00;;;;;;5064621;28;20074;-55
2023/02/16 08:02:22;;;;;;;6.38;2.78;;;26.80;90.10;;;;;;5071187;28;20330;-55
2023/02/16 08:04:51;;;;;;;4.93;2.75;;;26.80;90.10;;;;;;5070961;28;20021;-56
2023/02/16 08:07:19;;;;;;;5.10;2.85;;;26.90;90.30;;;;;;5077461;28;20033;-56
2023/02/16 08:09:45;;;;;;;4.68;3.00;;;26.90;90.20;;;;;;5064348;28;20301;-57
2023/02/16 08:12:14;;;;;;;6.40;2.80;;;26.80;90.20;;;;;;5063937;28;20087;-54
2023/02/16 08:14:40;;;;;;;4.63;2.75;;;26.90;90.30;;;;;;5064315;28;20305;-57
2023/02/16 08:17:08;;;;;;;3.63;2.65;;;26.80;90.30;;;;;;5063763;28;20024;-54
2023/02/16 08:19:39;;;;;;;3.90;2.67;;;26.80;90.40;;;;;;5064317;28;20064;-58
2023/02/16 08:22:06;;;;;;;4.68;2.80;;;26.80;90.40;;;;;;5063639;28;20051;-56
2023/02/16 08:24:34;;;;;;;7.68;3.30;;;26.90;90.50;;;;;;5064091;28;20024;-56
2023/02/16 08:27:03;;;;;;;6.38;3.00;;;26.90;90.50;;;;;;5063478;28;20309;-57
2023/02/16 08:29:31;;;;;;;4.80;3.28;;;26.80;90.60;;;;;;5064134;28;20025;-56
2023/02/16 08:31:58;;;;;;;6.05;3.33;;;26.80;90.60;;;;;;5063574;28;20041;-56
2023/02/16 08:34:26;;;;;;;4.28;2.97;;;26.80;90.70;;;;;;5064086;28;20056;-58
2023/02/16 08:36:56;;;;;;;6.28;3.55;;;26.90;90.70;;;;;;5063579;28;20104;-57
2023/02/16 08:39:25;;;;;;;10.70;4.47;;;26.80;90.90;;;;;;5063915;28;20020;-56
2023/02/16 08:41:53;;;;;;;18.02;6.65;;;26.80;91.10;;;;;;5063688;28;20032;-59
2023/02/16 08:44:21;;;;;;;22.25;6.53;;;26.70;91.40;;;;;;5063421;28;20028;-57
2023/02/16 08:46:49;;;;;;;20.38;6.88;;;26.70;91.50;;;;;;5063376;28;20036;-57
2023/02/16 08:49:17;;;;;;;21.77;7.00;;;26.70;91.60;;;;;;5063939;28;20024;-55
2023/02/16 08:51:47;;;;;;;28.63;7.32;;;26.60;91.80;;;;;;5063459;28;20043;-57
2023/02/16 08:54:19;;;;;;;16.23;6.90;;;26.60;91.90;;;;;;5063679;28;20100;-54
2023/02/16 08:56:46;;;;;;;;;;;26.60;91.90;;;;;;5063861;28;20041;-57
2023/02/16 08:59:18;;;;;;;14.65;6.72;;;26.60;92.00;;;;;;5063636;28;19947;-56
2023/02/16 09:01:45;;;;;;;14.27;6.88;;;26.60;92.00;;;;;;5063318;28;20328;-55
2023/02/16 09:04:13;;;;;;;13.90;7.07;;;26.60;92.10;;;;;;5063762;28;20040;-56
2023/02/16 09:06:41;;;;;;;13.32;6.22;;;26.60;92.00;;;;;;5063145;28;20121;-55
2023/02/16 09:09:09;;;;;;;14.45;6.40;;;26.60;91.90;;;;;;5063801;28;20204;-57
2023/02/16 09:11:36;;;;;;;12.07;5.80;;;26.60;91.90;;;;;;5063357;28;20052;-56
2023/02/16 09:14:03;;;;;;;12.05;5.10;;;26.60;92.00;;;;;;5063558;28;20066;-57
2023/02/16 09:16:35;;;;;;;15.60;4.90;;;26.50;92.10;;;;;;5063313;28;20037;-57
2023/02/16 09:19:02;;;;;;;15.38;4.95;;;26.50;91.90;;;;;;5063529;28;20049;-54
2023/02/16 09:21:32;;;;;;;12.98;4.68;;;26.50;92.00;;;;;;5063040;28;20092;-53
2023/02/16 09:24:02;;;;;;;10.27;4.85;;;26.50;92.00;;;;;;5063509;28;20092;-55
2023/02/16 09:26:32;;;;;;;8.80;4.28;;;26.50;91.90;;;;;;5063438;28;20025;-59
2023/02/16 09:28:59;;;;;;;10.00;4.50;;;26.40;92.00;;;;;;5062939;28;20029;-54
2023/02/16 09:31:31;;;;;;;10.75;5.22;;;26.40;92.20;;;;;;5063417;28;20313;-61
2023/02/16 09:34:03;;;;;;;8.93;5.10;;;26.40;92.30;;;;;;5063295;28;20059;-56
2023/02/16 09:36:32;;;;;;;7.97;4.65;;;26.40;92.30;;;;;;5063572;28;20037;-54
2023/02/16 09:39:01;;;;;;;6.47;3.95;;;26.40;92.30;;;;;;5065656;28;20071;-55
2023/02/16 09:41:34;;;;;;;9.68;4.50;;;26.40;92.30;;;;;;5066474;28;20025;-54
2023/02/16 09:44:19;;;;;;;6.28;4.03;;;26.40;92.20;;;;;;5066913;28;20096;-56
2023/02/16 09:46:47;;;;;;;5.88;3.97;;;26.30;92.20;;;;;;5066396;28;20049;-57
2023/02/16 09:49:29;;;;;;;9.82;4.53;;;26.30;92.20;;;;;;5066956;28;20029;-56
2023/02/16 09:52:31;;;;;;;7.22;4.28;;;26.30;92.20;;;;;;5066355;28;20021;-58
2023/02/16 09:54:59;;;;;;;9.63;4.60;;;26.30;92.20;;;;;;5066362;28;20044;-55
2023/02/16 09:57:29;;;;;;;8.13;4.72;;;26.30;92.30;;;;;;5066212;28;20133;-54
2023/02/16 10:00:07;;;;;;;9.48;4.70;;;26.30;92.30;;;;;;5066366;28;20033;-53
2023/02/16 10:03:08;;;;;;;10.27;4.70;;;26.30;92.30;;;;;;5065280;28;20217;-57
2023/02/16 10:05:44;;;;;;;8.02;4.53;;;26.30;92.30;;;;;;5063262;28;20068;-52
2023/02/16 10:08:23;;;;;;;6.93;4.18;;;26.20;92.30;;;;;;5066199;28;20021;-53
2023/02/16 10:11:04;;;;;;;7.15;3.70;;;26.20;92.30;;;;;;5065758;28;20056;-51
2023/02/16 10:13:52;;;;;;;11.30;4.20;;;26.20;92.30;;;;;;5065932;28;20066;-55
2023/02/16 10:16:27;;;;;;;15.18;5.00;;;26.10;92.20;;;;;;5085577;28;20036;-58
2023/02/16 10:18:55;;;;;;;12.20;4.32;;;26.20;92.40;;;;;;5086245;28;20205;-55
2023/02/16 10:21:30;;;;;;;14.43;4.25;;;26.20;92.40;;;;;;5085848;28;20228;-59
2023/02/16 10:24:01;;;;;;;7.85;3.78;;;26.20;92.30;;;;;;5086238;28;20323;-61
2023/02/16 10:26:31;;;;;;;9.55;3.60;;;26.20;92.40;;;;;;5085930;28;20032;-56
2023/02/16 10:29:16;;;;;;;6.72;3.42;;;26.20;92.40;;;;;;5085982;28;20032;-56
2023/02/16 10:32:10;;;;;;;6.50;3.83;;;26.20;92.50;;;;;;5085662;28;20028;-57
2023/02/16 10:35:14;;;;;;;6.60;4.00;;;26.20;92.60;;;;;;5086075;28;20047;-56
2023/02/16 10:37:53;;;;;;;7.07;4.47;;;26.30;92.60;;;;;;5084002;28;20120;-55
2023/02/16 10:40:25;;;;;;;5.47;3.90;;;26.20;92.50;;;;;;5080495;28;20032;-59
2023/02/16 10:43:19;;;;;;;4.38;3.47;;;26.30;92.60;;;;;;5085429;28;20097;-60
2023/02/16 10:45:54;;;;;;;6.45;3.28;;;26.20;92.60;;;;;;5068204;28;20044;-55
2023/02/16 10:48:22;;;;;;;4.25;2.72;;;26.20;92.50;;;;;;5069205;28;20028;-57
2023/02/16 10:51:02;;;;;;;6.40;3.10;;;26.20;92.40;;;;;;5085079;28;20028;-56
2023/02/16 10:53:49;;;;;;;3.63;2.42;;;26.20;92.50;;;;;;5085445;28;20032;-58
2023/02/16 10:56:24;;;;;;;3.97;2.58;;;26.20;92.50;;;;;;5085059;28;20316;-57
2023/02/16 10:58:52;;;;;;;5.15;2.83;;;26.20;92.50;;;;;;5080577;28;20220;-57
2023/02/16 11:01:26;;;;;;;2.78;2.50;;;26.20;92.60;;;;;;5065693;28;20369;-55
2023/02/16 11:03:53;;;;;;;4.70;2.80;;;26.10;92.60;;;;;;5065205;28;20043;-56
2023/02/16 11:06:25;;;;;;;5.65;2.97;;;26.10;92.60;;;;;;5064978;28;20028;-54
2023/02/16 11:08:58;;;;;;;4.63;3.03;;;26.20;92.60;;;;;;5065074;28;20029;-56
2023/02/16 11:11:35;;;;;;;5.00;3.08;;;26.10;92.70;;;;;;5064873;28;20221;-57
2023/02/16 11:14:19;;;;;;;4.03;2.80;;;26.10;92.50;;;;;;5065147;28;20094;-59
2023/02/16 11:17:00;;;;;;;4.65;3.17;;;26.10;92.60;;;;;;5064973;28;20025;-62
2023/02/16 11:19:27;;;;;;;5.43;3.23;;;26.10;92.60;;;;;;5065207;28;20024;-56
2023/02/16 11:21:55;;;;;;;8.55;4.10;;;26.10;92.80;;;;;;5064629;28;20338;-56
2023/02/16 11:24:25;;;;;;;8.15;4.22;;;26.10;92.50;;;;;;5065019;28;20134;-61
2023/02/16 11:27:05;;;;;;;6.50;3.70;;;26.10;92.60;;;;;;5064523;28;20021;-59
2023/02/16 11:29:33;;;;;;;5.07;3.60;;;26.10;92.60;;;;;;5064941;28;20025;-57
2023/02/16 11:32:09;;;;;;;9.82;4.00;;;26.00;92.60;;;;;;5064468;28;20041;-57
2023/02/16 11:34:42;;;;;;;15.32;4.95;;;26.00;92.60;;;;;;5066380;28;20036;-54
2023/02/16 11:37:18;;;;;;;17.38;4.13;;;26.00;92.60;;;;;;5072360;28;20028;-58
2023/02/16 11:39:51;;;;;;;13.52;4.03;;;26.00;92.60;;;;;;5084863;28;20100;-57
2023/02/16 11:42:49;;;;;;;7.82;3.28;;;26.00;92.70;;;;;;5084428;28;20032;-57
2023/02/16 11:45:27;;;;;;;6.50;3.40;;;26.00;92.80;;;;;;5064693;28;20032;-57
2023/02/16 11:48:02;;;;;;;6.72;2.97;;;26.00;92.80;;;;;;5084523;28;20077;-55
2023/02/16 11:50:34;;;;;;;9.77;3.10;;;26.10;92.80;;;;;;5084404;28;20091;-56
2023/02/16 11:53:15;;;;;;;5.00;2.42;;;26.00;92.70;;;;;;5083103;28;20192;-53
2023/02/16 11:55:44;;;;;;;3.85;2.50;;;26.00;92.50;;;;;;5084166;28;20070;-56
2023/02/16 11:58:26;;;;;;;3.83;2.60;;;25.60;93.20;;;;;;5084118;28;20028;-51
2023/02/16 12:00:59;;;;;;;4.70;3.20;;;25.60;93.50;;;;;;5083604;28;20066;-49
2023/02/16 12:03:57;;;;;;;5.63;3.17;;;25.60;93.40;;;;;;5083993;28;20647;-48
2023/02/16 12:06:50;;;;;;;20.85;5.47;;;25.70;93.40;;;;;;5081970;28;20044;-53
2023/02/16 12:09:44;;;;;;;28.83;8.00;;;25.80;93.40;;;;;;5084139;28;20024;-53
2023/02/16 12:12:17;;;;;;;18.08;5.78;;;25.80;93.40;;;;;;5083122;28;20048;-51
2023/02/16 12:14:55;;;;;;;9.43;4.72;;;25.80;93.40;;;;;;5083889;28;20028;-59
2023/02/16 12:17:47;;;;;;;9.90;4.55;;;25.80;93.40;;;;;;5083798;28;20048;-56
2023/02/16 12:20:14;;;;;;;7.38;4.03;;;25.70;93.70;;;;;;5084071;28;20317;-51
2023/02/16 12:22:49;;;;;;;6.60;4.18;;;25.70;93.60;;;;;;5083883;28;20040;-57
2023/02/16 12:25:21;;;;;;;8.23;4.60;;;25.70;93.60;;;;;;5083917;28;20028;-48
2023/02/16 12:27:57;;;;;;;9.20;5.03;;;25.80;93.60;;;;;;5083880;28;20229;-57
2023/02/16 12:30:51;;;;;;;16.58;6.40;;;25.80;93.60;;;;;;5084130;28;20119;-48
2023/02/16 12:33:41;;;;;;;51.65;10.43;;;25.80;93.50;;;;;;5083700;28;20214;-54
2023/02/16 12:36:27;;;;;;;64.63;11.88;;;25.80;93.60;;;;;;5083844;28;20020;-50
2023/02/16 12:39:16;;;;;;;53.05;10.75;;;25.80;93.60;;;;;;5066445;28;20036;-53
2023/02/16 12:42:33;;;;;;;34.85;7.82;;;25.80;93.80;;;;;;5083991;28;20297;-51
2023/02/16 12:45:09;;;;;;;23.17;7.38;;;25.80;93.50;;;;;;5050204;28;20037;-51
2023/02/16 12:47:46;;;;;;;21.00;5.63;;;25.80;93.50;;;;;;5084214;28;20054;-57
2023/02/16 12:50:29;;;;;;;16.23;4.95;;;25.70;93.50;;;;;;5083908;28;20029;-51
2023/02/16 12:52:58;;;;;;;12.95;5.18;;;25.70;93.60;;;;;;5083896;28;20224;-50
2023/02/16 12:55:27;;;;;;;12.80;5.40;;;25.70;93.60;;;;;;5083855;28;20051;-50
2023/02/16 12:57:57;;;;;;;13.82;5.30;;;25.70;93.70;;;;;;5083510;28;20062;-57
2023/02/16 13:00:39;;;;;;;14.40;5.53;;;25.70;93.70;;;;;;5083561;28;20032;-53
2023/02/16 13:03:45;;;;;;;;;;;25.70;93.70;;;;;;5083929;28;20063;-52
2023/02/16 13:06:28;;;;;;;18.05;6.18;;;25.70;93.70;;;;;;4983296;28;19906;-57
2023/02/16 13:09:21;;;;;;;16.23;5.07;;;25.70;93.80;;;;;;4982652;28;20031;-54
2023/02/16 13:12:12;;;;;;;12.45;4.95;;;25.70;93.70;;;;;;5061258;28;20044;-52
2023/02/16 13:14:43;;;;;;;8.88;4.85;;;25.60;93.70;;;;;;5087610;28;20024;-51
2023/02/16 13:17:17;;;;;;;16.33;4.15;;;25.60;93.60;;;;;;5087139;28;20052;-49
2023/02/16 13:19:45;;;;;;;8.02;3.90;;;25.60;93.60;;;;;;5087158;28;20339;-50
2023/02/16 13:22:21;;;;;;;7.85;3.75;;;25.60;93.50;;;;;;5087051;28;20036;-50
2023/02/16 13:25:36;;;;;;;7.05;3.67;;;25.60;93.40;;;;;;5069580;28;20059;-47
2023/02/16 13:28:30;;;;;;;6.20;3.22;;;25.50;93.50;;;;;;5005825;28;20450;-49
2023/02/16 13:31:11;;;;;;;4.80;3.05;;;25.50;93.50;;;;;;5005636;28;20114;-49
2023/02/16 13:34:12;;;;;;;3.97;2.90;;;25.50;93.50;;;;;;5073740;28;20046;-50
2023/02/16 13:37:04;;;;;;;6.75;2.80;;;25.50;93.50;;;;;;5087385;28;20025;-51
2023/02/16 13:39:30;;;;;;;2.97;2.30;;;25.60;93.50;;;;;;5086709;28;20086;-49
2023/02/16 13:42:08;;;;;;;4.97;2.30;;;25.60;93.40;;;;;;5086527;28;20040;-52
2023/02/16 13:45:02;;;;;;;4.50;2.28;;;25.60;93.40;;;;;;5086366;28;20025;-50
2023/02/16 13:47:37;;;;;;;3.50;2.10;;;25.60;93.50;;;;;;5077358;28;20336;-53
2023/02/16 13:50:21;;;;;;;3.20;2.20;;;25.60;93.60;;;;;;5086777;28;20033;-51
2023/02/16 13:52:50;;;;;;;2.05;1.67;;;25.60;93.60;;;;;;5071184;28;20326;-59
2023/02/16 13:55:38;;;;;;;1.83;1.42;;;25.70;93.60;;;;;;5086566;28;20040;-52